createdAt,value
2023-03-01T00:01:21.228Z,101543.92
2023-03-01T00:06:25.201Z,101545.30
2023-03-01T00:11:30.629Z,101536.38
2023-03-01T00:16:41.915Z,101531.85
2023-03-01T00:21:45.230Z,101523.55
2023-03-01T00:26:48.124Z,101527.04
2023-03-01T00:31:51.479Z,101526.10
2023-03-01T00:36:54.347Z,101517.70
2023-03-01T00:41:57.666Z,101511.33
2023-03-01T00:47:00.564Z,101502.74
2023-03-01T00:52:03.571Z,101508.86
2023-03-01T00:57:06.476Z,101510.48
2023-03-01T01:02:09.310Z,101516.32
2023-03-01T01:07:12.632Z,101517.98
2023-03-01T01:12:15.489Z,101512.62
2023-03-01T01:17:18.392Z,101514.17
2023-03-01T01:22:21.295Z,101515.19
2023-03-01T01:27:24.198Z,101515.55
2023-03-01T01:32:27.486Z,101510.46
2023-03-01T01:37:34.522Z,101505.41
2023-03-01T01:42:37.413Z,101512.45
2023-03-01T01:47:40.517Z,101501.35
2023-03-01T01:52:43.732Z,101491.02
2023-03-01T01:57:47.868Z,101480.81
2023-03-01T02:02:56.320Z,101468.58
2023-03-01T02:07:59.579Z,101461.95
2023-03-01T02:13:04.820Z,101457.66
2023-03-01T02:18:11.153Z,101464.48
2023-03-01T02:23:14.058Z,101472.83
2023-03-01T02:28:16.864Z,101483.04
2023-03-01T02:33:19.948Z,101480.34
2023-03-01T02:38:24.037Z,101472.52
2023-03-01T02:43:32.435Z,101475.45
2023-03-01T02:48:47.828Z,101467.77
2023-03-01T02:54:13.364Z,101456.54
2023-03-01T02:59:19.174Z,101444.09
2023-03-01T03:04:22.177Z,101440.90
2023-03-01T03:09:25.142Z,101435.55
2023-03-01T03:14:28.047Z,101432.92
2023-03-01T03:19:30.949Z,101425.40
2023-03-01T03:24:39.246Z,101417.41
2023-03-01T03:29:42.284Z,101413.89
2023-03-01T03:34:45.301Z,101407.55
2023-03-01T03:39:48.193Z,101405.91
2023-03-01T03:44:51.100Z,101401.25
2023-03-01T03:49:54.005Z,101398.56
2023-03-01T03:54:56.909Z,101404.99
2023-03-01T03:59:59.809Z,101401.03
2023-03-01T04:05:02.719Z,101394.06
2023-03-01T04:10:08.278Z,101396.15
2023-03-01T04:15:15.790Z,101393.95
2023-03-01T04:20:27.716Z,101389.98
2023-03-01T04:25:30.564Z,101395.87
2023-03-01T04:30:36.908Z,101394.45
2023-03-01T04:35:40.264Z,101397.66
2023-03-01T04:40:44.321Z,101404.37
2023-03-01T04:45:47.178Z,101397.59
2023-03-01T04:50:50.145Z,101392.80
2023-03-01T04:55:53.150Z,101387.89
2023-03-01T05:00:56.475Z,101386.27
2023-03-01T05:06:00.738Z,101380.98
2023-03-01T05:11:04.037Z,101385.36
2023-03-01T05:16:07.740Z,101376.74
2023-03-01T05:21:13.822Z,101370.52
2023-03-01T05:26:28.206Z,101360.95
2023-03-01T05:31:42.329Z,101368.36
2023-03-01T05:36:45.153Z,101372.20
2023-03-01T05:41:48.827Z,101372.45
2023-03-01T05:46:52.088Z,101362.70
2023-03-01T05:51:54.884Z,101363.45
2023-03-01T05:57:00.779Z,101367.83
2023-03-01T06:02:06.155Z,101378.57
2023-03-01T06:07:09.234Z,101372.26
2023-03-01T06:12:13.881Z,101380.46
2023-03-01T06:17:16.885Z,101384.92
2023-03-01T06:22:19.998Z,101380.34
2023-03-01T06:27:23.220Z,101377.92
2023-03-01T06:32:26.024Z,101387.99
2023-03-01T06:37:36.797Z,101387.95
2023-03-01T06:42:43.956Z,101379.19
2023-03-01T06:47:47.187Z,101373.26
2023-03-01T06:52:56.926Z,101373.58
2023-03-01T06:58:02.170Z,101380.36
2023-03-01T07:03:05.132Z,101407.02
2023-03-01T07:08:08.240Z,101423.67
2023-03-01T07:13:11.146Z,101429.53
2023-03-01T07:18:13.950Z,101429.96
2023-03-01T07:23:16.959Z,101425.56
2023-03-01T07:28:19.859Z,101427.52
2023-03-01T07:33:23.275Z,101427.30
2023-03-01T07:38:27.607Z,101423.61
2023-03-01T07:43:31.950Z,101428.40
2023-03-01T07:48:34.844Z,101424.52
2023-03-01T07:53:37.774Z,101420.71
2023-03-01T07:58:43.221Z,101417.05
2023-03-01T08:03:46.449Z,101418.11
2023-03-01T08:08:49.328Z,101417.09
2023-03-01T08:13:53.096Z,101409.67
2023-03-01T08:19:00.595Z,101412.91
2023-03-01T08:24:04.977Z,101409.94
2023-03-01T08:29:11.496Z,101407.38
2023-03-01T08:34:19.245Z,101402.52
2023-03-01T08:39:22.995Z,101409.11
2023-03-01T08:44:26.438Z,101402.35
2023-03-01T08:49:29.559Z,101392.61
2023-03-01T08:54:35.669Z,101375.67
2023-03-01T08:59:44.166Z,101364.92
2023-03-01T09:04:46.967Z,101360.94
2023-03-01T09:09:49.801Z,101377.57
2023-03-01T09:14:52.673Z,101384.71
2023-03-01T09:19:55.680Z,101377.22
2023-03-01T09:25:00.638Z,101378.77
2023-03-01T09:30:04.055Z,101373.34
2023-03-01T09:35:08.516Z,101374.33
2023-03-01T09:40:18.430Z,101383.83
2023-03-01T09:45:36.120Z,101387.92
2023-03-01T09:50:42.598Z,101383.95
2023-03-01T09:56:12.810Z,101377.59
2023-03-01T10:01:39.576Z,101374.63
2023-03-01T10:06:53.199Z,101368.39
2023-03-01T10:11:57.149Z,101366.48
2023-03-01T10:17:03.946Z,101360.36
2023-03-01T10:22:15.676Z,101354.23
2023-03-01T10:27:26.671Z,101355.73
2023-03-01T10:32:30.555Z,101352.59
2023-03-01T10:37:33.440Z,101349.46
2023-03-01T10:42:47.613Z,101343.61
2023-03-01T10:48:06.491Z,101341.57
2023-03-01T10:53:25.787Z,101342.30
2023-03-01T10:58:31.285Z,101342.18
2023-03-01T11:03:39.709Z,101332.11
2023-03-01T11:08:44.631Z,101333.52
2023-03-01T11:13:56.787Z,101328.66
2023-03-01T11:19:17.170Z,101325.54
2023-03-01T11:24:22.122Z,101315.83
2023-03-01T11:29:37.229Z,101315.32
2023-03-01T11:34:55.845Z,101315.86
2023-03-01T11:40:23.455Z,101309.94
2023-03-01T11:45:31.282Z,101306.44
2023-03-01T11:50:49.633Z,101305.38
2023-03-01T11:56:15.076Z,101309.55
2023-03-01T12:01:58.365Z,101307.24
2023-03-01T12:07:40.393Z,101308.23
2023-03-01T12:12:43.477Z,101305.17
2023-03-01T12:18:00.683Z,101304.05
2023-03-01T12:23:38.780Z,101301.45
2023-03-01T12:28:58.059Z,101298.73
2023-03-01T12:34:23.867Z,101302.35
2023-03-01T12:39:53.566Z,101300.55
2023-03-01T12:45:34.627Z,101297.69
2023-03-01T12:50:43.741Z,101295.39
2023-03-01T12:55:48.557Z,101286.66
2023-03-01T13:01:16.445Z,101283.33
2023-03-01T13:06:24.245Z,101278.48
2023-03-01T13:11:28.729Z,101274.09
2023-03-01T13:16:31.971Z,101268.74
2023-03-01T13:21:35.009Z,101264.07
2023-03-01T13:27:26.142Z,101262.27
2023-03-01T13:32:46.656Z,101263.84
2023-03-01T13:37:49.645Z,101265.95
2023-03-01T13:43:05.287Z,101256.98
2023-03-01T13:48:28.092Z,101249.84
2023-03-01T13:53:36.889Z,101250.41
2023-03-01T13:58:51.879Z,101248.55
2023-03-01T14:03:56.820Z,101246.50
2023-03-01T14:09:25.154Z,101240.30
2023-03-01T14:14:31.030Z,101228.31
2023-03-01T14:19:34.770Z,101228.13
2023-03-01T14:24:45.820Z,101226.57
2023-03-01T14:30:04.707Z,101219.77
2023-03-01T14:35:22.926Z,101218.02
2023-03-01T14:40:38.958Z,101210.02
2023-03-01T14:45:50.014Z,101203.90
2023-03-01T14:50:53.194Z,101204.02
2023-03-01T14:56:05.324Z,101207.82
2023-03-01T15:01:09.568Z,101202.58
2023-03-01T15:06:16.670Z,101195.13
2023-03-01T15:11:31.731Z,101190.48
2023-03-01T15:16:40.012Z,101189.19
2023-03-01T15:21:48.078Z,101187.04
2023-03-01T15:26:52.062Z,101179.61
2023-03-01T15:32:06.849Z,101177.76
2023-03-01T15:37:50.565Z,101180.66
2023-03-01T15:42:53.340Z,101178.92
2023-03-01T15:48:14.549Z,101183.20
2023-03-01T15:53:18.604Z,101181.34
2023-03-01T15:58:25.510Z,101185.73
2023-03-01T16:03:28.509Z,101187.07
2023-03-01T16:08:31.417Z,101196.06
2023-03-01T16:13:34.291Z,101197.63
2023-03-01T16:18:37.427Z,101191.41
2023-03-01T16:23:40.437Z,101193.25
2023-03-01T16:28:44.650Z,101196.11
2023-03-01T16:33:51.854Z,101204.99
2023-03-01T16:38:58.776Z,101211.58
2023-03-01T16:44:02.954Z,101212.65
2023-03-01T16:49:11.330Z,101221.16
2023-03-01T16:54:22.670Z,101220.65
2023-03-01T16:59:26.739Z,101218.98
2023-03-01T17:04:32.149Z,101222.30
2023-03-01T17:09:41.212Z,101227.18
2023-03-01T17:15:08.239Z,101221.55
2023-03-01T17:20:20.887Z,101222.46
2023-03-01T17:25:23.729Z,101216.40
2023-03-01T17:30:26.541Z,101219.64
2023-03-01T17:35:29.545Z,101213.17
2023-03-01T17:40:33.420Z,101209.34
2023-03-01T17:45:40.143Z,101208.51
2023-03-01T17:50:42.976Z,101210.73
2023-03-01T17:55:46.254Z,101205.33
2023-03-01T18:00:50.596Z,101213.39
2023-03-01T18:05:53.555Z,101219.23
2023-03-01T18:11:00.156Z,101219.48
2023-03-01T18:16:11.042Z,101218.39
2023-03-01T18:21:15.173Z,101220.23
2023-03-01T18:26:19.808Z,101221.00
2023-03-01T18:31:22.955Z,101219.96
2023-03-01T18:36:27.289Z,101219.72
2023-03-01T18:41:30.856Z,101227.48
2023-03-01T18:46:37.645Z,101225.89
2023-03-01T18:51:42.415Z,101223.13
2023-03-01T18:56:46.106Z,101226.95
2023-03-01T19:01:48.971Z,101226.68
2023-03-01T19:06:51.964Z,101225.94
2023-03-01T19:11:59.008Z,101230.13
2023-03-01T19:17:02.173Z,101237.11
2023-03-01T19:22:06.617Z,101245.61
2023-03-01T19:27:09.415Z,101255.55
2023-03-01T19:32:12.370Z,101255.14
2023-03-01T19:37:15.480Z,101250.67
2023-03-01T19:42:18.427Z,101250.70
2023-03-01T19:47:21.336Z,101255.67
2023-03-01T19:52:24.336Z,101254.32
2023-03-01T19:57:27.237Z,101251.85
2023-03-01T20:02:30.166Z,101249.45
2023-03-01T20:07:33.045Z,101253.44
2023-03-01T20:12:37.493Z,101249.27
2023-03-01T20:17:40.494Z,101248.56
2023-03-01T20:22:43.502Z,101244.79
2023-03-01T20:27:47.732Z,101241.89
2023-03-01T20:32:50.639Z,101241.64
2023-03-01T20:37:54.059Z,101245.86
2023-03-01T20:42:58.314Z,101251.63
2023-03-01T20:48:01.205Z,101245.02
2023-03-01T20:53:04.006Z,101241.10
2023-03-01T20:58:06.894Z,101240.96
2023-03-01T21:03:09.695Z,101235.89
2023-03-01T21:08:12.602Z,101231.44
2023-03-01T21:13:15.403Z,101233.92
2023-03-01T21:18:18.316Z,101239.86
2023-03-01T21:23:21.109Z,101239.34
2023-03-01T21:28:24.220Z,101239.04
2023-03-01T21:33:27.021Z,101233.58
2023-03-01T21:38:31.927Z,101236.14
2023-03-01T21:43:36.315Z,101245.86
2023-03-01T21:48:41.475Z,101252.11
2023-03-01T21:53:45.905Z,101250.93
2023-03-01T21:58:49.755Z,101247.05
2023-03-01T22:03:53.282Z,101235.80
2023-03-01T22:08:59.010Z,101231.65
2023-03-01T22:14:02.128Z,101233.19
2023-03-01T22:19:07.108Z,101231.64
2023-03-01T22:24:11.618Z,101230.69
2023-03-01T22:29:17.384Z,101238.39
2023-03-01T22:34:20.291Z,101237.16
2023-03-01T22:39:23.199Z,101235.89
2023-03-01T22:44:26.103Z,101238.98
2023-03-01T22:49:28.923Z,101236.30
2023-03-01T22:54:32.425Z,101236.08
2023-03-01T22:59:35.438Z,101235.86
2023-03-01T23:04:38.328Z,101238.88
2023-03-01T23:09:41.334Z,101245.13
2023-03-01T23:14:44.235Z,101247.17
2023-03-01T23:19:47.240Z,101240.61
2023-03-01T23:24:50.145Z,101241.63
2023-03-01T23:29:52.959Z,101249.71
2023-03-01T23:34:55.748Z,101258.30
2023-03-01T23:39:58.758Z,101260.21
2023-03-01T23:45:01.859Z,101259.77
2023-03-01T23:50:05.552Z,101255.61
2023-03-01T23:55:11.457Z,101257.14
